Time;durP1;ratioP1;P1;durP2;ratioP2;P2;SDS_P1;SDS_P2;PMS_P1;PMS_P2;Temp;Humidity;BMP_temperature;BMP_pressure;BME280_temperature;BME280_humidity;BME280_pressure;Samples;Min_cycle;Max_cycle;Signal;HPM_P1;HPM_P2
2022/10/28 00:00:32;;;;;;;11.35;2.30;;;;;14.70;94849.00;;;;7395373;19;20164;-75
2022/10/28 00:03:00;;;;;;;11.98;2.75;;;;;14.70;94855.00;;;;7395934;19;20152;-76
2022/10/28 00:05:34;;;;;;;12.82;2.50;;;;;14.80;94846.00;;;;7395494;19;20475;-74
2022/10/28 00:08:02;;;;;;;14.05;2.47;;;;;14.90;94848.00;;;;7397800;19;20129;-75
2022/10/28 00:10:29;;;;;;;10.63;2.72;;;;;14.90;94853.00;;;;7394438;19;20641;-73
2022/10/28 00:13:06;;;;;;;13.57;2.80;;;;;14.90;94850.00;;;;7392369;19;20156;-74
2022/10/28 00:15:34;;;;;;;6.38;2.13;;;;;14.90;94851.00;;;;7397796;19;20208;-74
2022/10/28 00:18:05;;;;;;;12.63;2.47;;;;;14.90;94848.00;;;;7395608;19;20179;-75
2022/10/28 00:20:43;;;;;;;13.73;3.13;;;;;15.10;94843.00;;;;7395680;19;20649;-75
2022/10/28 00:23:10;;;;;;;9.02;2.10;;;;;15.20;94847.00;;;;7395088;19;20155;-74
2022/10/28 00:25:37;;;;;;;14.10;2.45;;;;;15.20;94843.00;;;;7394460;19;20157;-76
2022/10/28 00:28:11;;;;;;;7.18;2.58;;;;;15.20;94844.00;;;;7394586;19;20243;-75
2022/10/28 00:30:38;;;;;;;8.85;2.42;;;;;15.60;94848.00;;;;7395695;19;20155;-74
2022/10/28 00:33:06;;;;;;;9.38;2.60;;;;;15.50;94843.00;;;;7393657;19;20133;-76
2022/10/28 00:35:41;;;;;;;13.45;3.08;;;;;15.50;94848.00;;;;7393257;19;20182;-75
2022/10/28 00:38:08;;;;;;;10.45;2.35;;;;;15.60;94843.00;;;;7394823;19;20129;-75
2022/10/28 00:40:36;;;;;;;9.90;2.22;;;;;15.80;94845.00;;;;7393683;19;20143;-75
2022/10/28 00:43:14;;;;;;;14.65;2.60;;;;;15.70;94844.00;;;;7394858;19;20151;-74
2022/10/28 00:45:41;;;;;;;8.60;2.38;;;;;15.80;94846.00;;;;7393352;19;20184;-74
2022/10/28 00:48:09;;;;;;;8.68;2.50;;;;;16.10;94846.00;;;;7395097;19;20156;-76
2022/10/28 00:50:51;;;;;;;14.10;2.45;;;;;16.20;94842.00;;;;7395768;19;20228;-75
2022/10/28 00:53:23;;;;;;;9.70;2.25;;;;;16.20;94847.00;;;;7390240;19;20595;-75
2022/10/28 00:56:07;;;;;;;8.80;2.50;;;;;16.40;94845.00;;;;7391697;19;20203;-74
2022/10/28 00:58:53;;;;;;;9.65;2.20;;;;;16.40;94842.00;;;;7393819;19;20164;-75
2022/10/28 01:01:28;;;;;;;10.60;2.45;;;;;16.40;94842.00;;;;7394390;19;20121;-79
2022/10/28 01:04:00;;;;;;;9.93;2.30;;;;;16.50;94843.00;;;;7393569;19;20153;-78
2022/10/28 01:06:29;;;;;;;6.85;2.30;;;;;16.40;94843.00;;;;7393933;19;20149;-78
2022/10/28 01:09:04;;;;;;;17.83;2.40;;;;;16.30;94842.00;;;;7395764;19;20614;-77
2022/10/28 01:11:34;;;;;;;10.52;2.45;;;;;16.40;94839.00;;;;7393722;19;20518;-78
2022/10/28 01:14:28;;;;;;;16.77;2.78;;;;;16.10;94834.00;;;;7391867;19;20621;-77
2022/10/28 01:17:12;;;;;;;12.43;2.38;;;;;16.10;94833.00;;;;7394877;19;20137;-77
2022/10/28 01:20:00;;;;;;;10.05;2.20;;;;;15.70;94839.00;;;;7393540;19;20754;-78
2022/10/28 01:22:54;;;;;;;11.55;2.40;;;;;15.50;94836.00;;;;7394681;19;20156;-78
2022/10/28 01:25:58;;;;;;;8.18;2.50;;;;;15.70;94841.00;;;;7396083;19;20645;-77
2022/10/28 01:28:53;;;;;;;8.02;2.50;;;;;15.60;94834.00;;;;7391777;19;20161;-78
2022/10/28 01:31:28;;;;;;;8.82;2.42;;;;;15.60;94835.00;;;;7394872;19;20585;-78
2022/10/28 01:34:24;;;;;;;11.10;2.22;;;;;15.70;94835.00;;;;7393449;19;20536;-78
2022/10/28 01:37:19;;;;;;;10.48;2.38;;;;;15.80;94832.00;;;;7394536;19;20595;-79
2022/10/28 01:40:16;;;;;;;12.40;2.42;;;;;16.00;94832.00;;;;7392863;19;20145;-79
2022/10/28 01:42:56;;;;;;;10.48;2.55;;;;;16.30;94835.00;;;;7391939;19;20145;-79
2022/10/28 01:45:44;;;;;;;17.38;2.85;;;;;16.50;94829.00;;;;7391448;19;20141;-79
2022/10/28 01:48:18;;;;;;;11.57;2.53;;;;;16.50;94830.00;;;;7393658;19;20832;-79
2022/10/28 01:51:22;;;;;;;9.45;2.53;;;;;16.50;94829.00;;;;7393600;19;20606;-79
2022/10/28 01:54:02;;;;;;;9.10;2.55;;;;;16.70;94829.00;;;;7390497;19;20152;-78
2022/10/28 01:56:45;;;;;;;10.10;2.03;;;;;16.60;94826.00;;;;7392710;19;20156;-78
2022/10/28 01:59:30;;;;;;;12.82;2.67;;;;;16.90;94821.00;;;;7394658;19;20608;-79
2022/10/28 02:02:07;;;;;;;9.35;2.55;;;;;17.10;94815.00;;;;7393562;19;20162;-79
2022/10/28 02:04:35;;;;;;;6.88;2.22;;;;;17.00;94820.00;;;;7392204;19;20623;-78
2022/10/28 02:07:05;;;;;;;13.45;2.40;;;;;17.10;94815.00;;;;7393150;19;20144;-79
2022/10/28 02:10:11;;;;;;;7.68;2.53;;;;;17.50;94812.00;;;;7392692;19;20196;-78
2022/10/28 02:12:47;;;;;;;12.70;3.45;;;;;17.60;94805.00;;;;7393579;19;20152;-78
2022/10/28 02:15:33;;;;;;;11.77;2.30;;;;;17.80;94812.00;;;;7392034;19;20588;-79
2022/10/28 02:18:34;;;;;;;12.82;2.88;;;;;18.10;94812.00;;;;7395568;19;20141;-79
2022/10/28 02:21:19;;;;;;;11.93;2.42;;;;;18.00;94811.00;;;;7396996;19;20152;-79
2022/10/28 02:24:09;;;;;;;15.60;2.42;;;;;17.90;94804.00;;;;7399233;19;20155;-79
2022/10/28 02:26:54;;;;;;;11.27;2.50;;;;;18.00;94806.00;;;;7399295;19;20152;-78
2022/10/28 02:29:50;;;;;;;11.60;3.10;;;;;18.20;94808.00;;;;7399558;19;20169;-78
2022/10/28 02:32:28;;;;;;;12.30;2.83;;;;;18.30;94800.00;;;;7401341;19;20583;-78
2022/10/28 02:34:59;;;;;;;11.40;2.40;;;;;18.30;94804.00;;;;7398879;19;20168;-80
2022/10/28 02:37:41;;;;;;;14.93;2.38;;;;;18.30;94797.00;;;;7398499;19;20148;-80
2022/10/28 02:40:29;;;;;;;9.30;2.42;;;;;18.50;94804.00;;;;7399602;19;20143;-80
2022/10/28 02:43:07;;;;;;;11.07;3.08;;;;;18.40;94805.00;;;;7398804;19;20177;-79
2022/10/28 02:45:42;;;;;;;15.45;3.17;;;;;18.40;94806.00;;;;7397598;19;20135;-79
2022/10/28 02:48:37;;;;;;;8.82;2.40;;;;;18.30;94806.00;;;;7398686;19;20160;-78
2022/10/28 02:51:21;;;;;;;12.15;2.67;;;;;18.30;94798.00;;;;7400733;19;20129;-78
2022/10/28 02:54:08;;;;;;;11.40;2.13;;;;;18.20;94803.00;;;;7398468;19;20129;-81
2022/10/28 02:56:54;;;;;;;9.52;2.45;;;;;18.20;94799.00;;;;7397900;19;20176;-80
2022/10/28 02:59:35;;;;;;;8.60;2.20;;;;;18.30;94801.00;;;;7399342;19;20481;-80
2022/10/28 03:02:08;;;;;;;11.93;2.92;;;;;18.40;94795.00;;;;7401472;19;20133;-79
2022/10/28 03:04:44;;;;;;;12.95;2.92;;;;;18.40;94801.00;;;;7399386;19;20156;-81
2022/10/28 03:07:19;;;;;;;10.88;2.67;;;;;18.20;94800.00;;;;7399600;19;20200;-80
2022/10/28 03:09:51;;;;;;;12.13;2.80;;;;;18.40;94797.00;;;;7397772;19;20621;-80
2022/10/28 03:12:26;;;;;;;10.05;2.60;;;;;18.40;94795.00;;;;7401324;19;20129;-80
2022/10/28 03:14:54;;;;;;;17.23;2.90;;;;;18.30;94802.00;;;;7396256;19;20610;-80
2022/10/28 03:17:23;;;;;;;9.90;2.30;;;;;18.30;94803.00;;;;7398529;19;20153;-80
2022/10/28 03:19:56;;;;;;;13.38;3.08;;;;;18.10;94801.00;;;;7399398;19;20145;-79
2022/10/28 03:22:25;;;;;;;9.30;2.25;;;;;18.10;94790.00;;;;7396852;19;20140;-80
2022/10/28 03:24:55;;;;;;;10.48;2.90;;;;;18.00;94792.00;;;;7398007;19;20136;-80
2022/10/28 03:27:43;;;;;;;21.17;2.88;;;;;18.00;94794.00;;;;7395629;19;20670;-80
2022/10/28 03:30:11;;;;;;;13.15;3.42;;;;;18.10;94793.00;;;;7394918;19;20503;-80
2022/10/28 03:32:52;;;;;;;6.35;2.30;;;;;17.90;94781.00;;;;7396980;19;20172;-80
2022/10/28 03:35:20;;;;;;;12.18;2.75;;;;;17.90;94782.00;;;;7396259;19;20227;-79
2022/10/28 03:37:47;;;;;;;8.35;2.75;;;;;17.70;94785.00;;;;7396939;19;20153;-79
2022/10/28 03:40:21;;;;;;;12.02;2.75;;;;;17.60;94784.00;;;;7397792;19;20137;-80
2022/10/28 03:42:49;;;;;;;14.75;2.70;;;;;17.30;94785.00;;;;7398187;19;20133;-80
2022/10/28 03:45:22;;;;;;;11.00;2.92;;;;;17.40;94774.00;;;;7398854;19;20196;-80
2022/10/28 03:47:56;;;;;;;13.00;2.53;;;;;17.70;94772.00;;;;7397786;19;20156;-80
2022/10/28 03:50:26;;;;;;;10.35;2.40;;;;;17.60;94777.00;;;;7396043;19;20538;-80
2022/10/28 03:52:57;;;;;;;10.38;2.88;;;;;17.60;94777.00;;;;7394009;19;20184;-79
2022/10/28 03:55:49;;;;;;;10.15;2.80;;;;;17.60;94781.00;;;;7393918;19;20653;-80
2022/10/28 03:58:23;;;;;;;10.05;2.88;;;;;17.60;94777.00;;;;7395005;19;20133;-79
2022/10/28 04:00:57;;;;;;;6.72;2.60;;;;;17.70;94776.00;;;;7396309;19;20459;-80
2022/10/28 04:03:27;;;;;;;13.20;2.53;;;;;17.50;94783.00;;;;7395444;19;20145;-79
2022/10/28 04:05:55;;;;;;;19.77;3.00;;;;;17.60;94774.00;;;;7398839;19;20129;-80
2022/10/28 04:08:34;;;;;;;12.55;2.72;;;;;17.70;94780.00;;;;7398808;19;20128;-79
2022/10/28 04:11:03;;;;;;;11.18;2.97;;;;;17.80;94781.00;;;;7398531;19;20157;-79
2022/10/28 04:13:31;;;;;;;12.40;2.88;;;;;17.80;94784.00;;;;7396024;19;20495;-80
2022/10/28 04:16:10;;;;;;;15.02;2.60;;;;;17.70;94788.00;;;;7396091;19;20156;-80
2022/10/28 04:18:38;;;;;;;13.30;3.53;;;;;17.70;94781.00;;;;7396841;19;20456;-80
2022/10/28 04:21:05;;;;;;;10.10;2.53;;;;;17.60;94774.00;;;;7398554;19;20133;-80
2022/10/28 04:23:41;;;;;;;13.80;3.55;;;;;17.60;94781.00;;;;7400363;19;20161;-81
2022/10/28 04:26:08;;;;;;;11.20;2.85;;;;;17.50;94773.00;;;;7399443;19;20160;-80
2022/10/28 04:28:37;;;;;;;17.80;2.83;;;;;17.50;94773.00;;;;7403673;19;20513;-80
2022/10/28 04:31:11;;;;;;;12.55;3.00;;;;;17.60;94770.00;;;;7400957;19;20161;-81
2022/10/28 04:33:38;;;;;;;12.32;2.55;;;;;17.40;94767.00;;;;7397047;19;20184;-80
2022/10/28 04:36:06;;;;;;;11.65;2.47;;;;;17.30;94763.00;;;;7398102;19;20628;-80
2022/10/28 04:38:40;;;;;;;15.77;2.50;;;;;17.30;94768.00;;;;7399128;19;20187;-80
2022/10/28 04:41:13;;;;;;;18.25;3.30;;;;;17.20;94755.00;;;;7396579;19;20162;-80
2022/10/28 04:43:47;;;;;;;14.38;2.88;;;;;17.20;94760.00;;;;7398096;19;20221;-80
2022/10/28 04:46:18;;;;;;;8.45;2.90;;;;;17.20;94759.00;;;;7396841;19;20651;-79
2022/10/28 04:48:47;;;;;;;14.13;2.92;;;;;17.00;94760.00;;;;7398450;19;20160;-79
2022/10/28 04:51:24;;;;;;;15.25;2.70;;;;;17.10;94757.00;;;;7396631;19;20161;-79
2022/10/28 04:53:51;;;;;;;12.77;2.95;;;;;17.20;94765.00;;;;7396751;19;20235;-80
2022/10/28 04:56:19;;;;;;;17.50;2.80;;;;;17.30;94756.00;;;;7393626;19;20294;-77
2022/10/28 04:59:04;;;;;;;14.32;2.63;;;;;17.30;94756.00;;;;7395944;19;20153;-78
2022/10/28 05:01:35;;;;;;;7.85;2.53;;;;;17.10;94759.00;;;;7395867;19;20594;-78
2022/10/28 05:04:09;;;;;;;12.50;2.78;;;;;17.10;94754.00;;;;7396265;19;20159;-78
2022/10/28 05:06:36;;;;;;;8.60;2.67;;;;;17.10;94766.00;;;;7393602;19;20155;-78
2022/10/28 05:09:05;;;;;;;16.23;2.70;;;;;17.50;94757.00;;;;7395879;19;20136;-77
2022/10/28 05:11:41;;;;;;;13.27;3.40;;;;;17.70;94759.00;;;;7395418;19;20144;-79
2022/10/28 05:14:09;;;;;;;9.10;2.63;;;;;17.70;94755.00;;;;7393709;19;20159;-78
2022/10/28 05:16:37;;;;;;;9.25;2.70;;;;;18.00;94763.00;;;;7391761;19;20150;-79
2022/10/28 05:19:13;;;;;;;13.43;3.10;;;;;18.20;94752.00;;;;7396243;19;20590;-79
2022/10/28 05:21:41;;;;;;;10.85;3.15;;;;;18.30;94751.00;;;;7391716;19;20155;-79
2022/10/28 05:24:18;;;;;;;13.77;2.80;;;;;18.30;94748.00;;;;7393266;19;20173;-78
2022/10/28 05:26:54;;;;;;;12.32;3.85;;;;;18.70;94757.00;;;;7394579;19;20133;-77
2022/10/28 05:29:23;;;;;;;18.38;3.10;;;;;18.80;94750.00;;;;7393429;19;20149;-78
2022/10/28 05:31:51;;;;;;;7.63;2.70;;;;;18.90;94742.00;;;;7395332;19;20651;-80
2022/10/28 05:34:26;;;;;;;12.57;2.72;;;;;19.10;94748.00;;;;7394712;19;20156;-79
2022/10/28 05:36:53;;;;;;;14.43;3.15;;;;;19.30;94744.00;;;;7393007;19;20176;-79
2022/10/28 05:39:21;;;;;;;11.85;2.58;;;;;19.10;94743.00;;;;7394433;19;20156;-81
2022/10/28 05:41:55;;;;;;;9.75;2.72;;;;;19.00;94735.00;;;;7394393;19;20182;-79
2022/10/28 05:44:22;;;;;;;10.35;2.33;;;;;19.10;94736.00;;;;7392504;19;20152;-78
2022/10/28 05:46:49;;;;;;;10.00;2.63;;;;;19.30;94729.00;;;;7392004;19;20244;-80
2022/10/28 05:49:24;;;;;;;11.80;3.10;;;;;19.20;94734.00;;;;7394794;19;20512;-79
2022/10/28 05:51:51;;;;;;;10.57;2.63;;;;;19.00;94738.00;;;;7392308;19;20208;-79
2022/10/28 05:54:19;;;;;;;16.90;3.03;;;;;19.00;94737.00;;;;7399385;19;20219;-79
2022/10/28 05:57:00;;;;;;;9.63;2.50;;;;;18.80;94744.00;;;;7398729;19;20190;-79
2022/10/28 05:59:28;;;;;;;9.85;2.78;;;;;18.80;94736.00;;;;7398270;19;20148;-79
2022/10/28 06:02:02;;;;;;;13.77;2.70;;;;;18.80;94737.00;;;;7402378;19;20682;-79
2022/10/28 06:04:30;;;;;;;12.15;2.67;;;;;18.60;94734.00;;;;7400658;19;20554;-80
2022/10/28 06:06:57;;;;;;;12.65;2.83;;;;;18.50;94735.00;;;;7401055;19;20155;-78
2022/10/28 06:09:31;;;;;;;12.38;2.63;;;;;18.90;94724.00;;;;7399921;19;20153;-78
2022/10/28 06:12:01;;;;;;;10.27;2.40;;;;;18.90;94725.00;;;;7399305;19;20129;-78
2022/10/28 06:14:29;;;;;;;10.52;2.90;;;;;19.00;94732.00;;;;7401663;19;20133;-79
2022/10/28 06:17:05;;;;;;;4.70;2.03;;;;;18.70;94739.00;;;;7398443;19;20153;-79
2022/10/28 06:19:39;;;;;;;8.82;2.50;;;;;18.80;94737.00;;;;7400018;19;20457;-78
2022/10/28 06:22:14;;;;;;;18.88;3.08;;;;;18.80;94737.00;;;;7401780;19;20212;-79
2022/10/28 06:24:42;;;;;;;9.35;2.17;;;;;18.80;94749.00;;;;7400950;19;20144;-79
2022/10/28 06:27:10;;;;;;;14.73;2.45;;;;;18.70;94751.00;;;;7402084;19;20173;-79
2022/10/28 06:29:44;;;;;;;14.35;2.75;;;;;18.60;94755.00;;;;7399787;19;20149;-79
2022/10/28 06:32:11;;;;;;;6.47;2.55;;;;;18.70;94752.00;;;;7401147;19;20137;-80
2022/10/28 06:34:39;;;;;;;11.57;2.50;;;;;18.80;94758.00;;;;7400675;19;20153;-76
2022/10/28 06:37:13;;;;;;;11.18;2.58;;;;;18.50;94756.00;;;;7398583;19;20458;-77
2022/10/28 06:39:42;;;;;;;8.88;2.38;;;;;18.60;94758.00;;;;7397338;19;20135;-78
2022/10/28 06:42:13;;;;;;;8.48;2.47;;;;;18.80;94770.00;;;;7401507;19;20521;-79
2022/10/28 06:44:49;;;;;;;6.13;2.47;;;;;18.80;94771.00;;;;7400541;19;20640;-80
2022/10/28 06:47:17;;;;;;;10.40;2.40;;;;;18.90;94770.00;;;;7399780;19;20153;-79
2022/10/28 06:49:44;;;;;;;8.35;2.17;;;;;18.90;94773.00;;;;7398069;19;20133;-77
2022/10/28 06:52:19;;;;;;;7.20;2.03;;;;;18.90;94770.00;;;;7398248;19;20143;-78
2022/10/28 06:54:46;;;;;;;9.45;2.63;;;;;19.10;94780.00;;;;7398671;19;20612;-79
2022/10/28 06:57:14;;;;;;;10.27;2.30;;;;;19.10;94788.00;;;;7396405;19;20196;-79
2022/10/28 06:59:54;;;;;;;12.25;2.72;;;;;19.10;94790.00;;;;7397676;19;20148;-80
2022/10/28 07:02:22;;;;;;;7.90;2.25;;;;;19.20;94782.00;;;;7396911;19;20895;-76
2022/10/28 07:04:59;;;;;;;7.05;2.05;;;;;19.30;94781.00;;;;7400840;19;20127;-78
2022/10/28 07:07:27;;;;;;;9.18;2.40;;;;;19.30;94789.00;;;;7397435;19;20145;-79
2022/10/28 07:09:55;;;;;;;9.02;2.25;;;;;19.40;94781.00;;;;7397190;19;20572;-78
2022/10/28 07:12:29;;;;;;;10.38;2.25;;;;;19.20;94791.00;;;;7398041;19;20129;-78
2022/10/28 07:15:03;;;;;;;7.03;3.00;;;;;19.30;94789.00;;;;7400283;19;20129;-79
2022/10/28 07:17:38;;;;;;;8.73;2.58;;;;;19.40;94790.00;;;;7397537;19;20164;-77
2022/10/28 07:20:07;;;;;;;8.65;2.38;;;;;19.30;94799.00;;;;7397169;19;20616;-79
2022/10/28 07:22:36;;;;;;;9.00;2.42;;;;;19.20;94798.00;;;;7398578;19;20149;-79
2022/10/28 07:25:10;;;;;;;11.40;2.03;;;;;19.30;94805.00;;;;7399152;19;20148;-79
2022/10/28 07:27:37;;;;;;;13.63;2.30;;;;;19.30;94809.00;;;;7397313;19;20195;-79
2022/10/28 07:30:06;;;;;;;11.20;2.78;;;;;19.30;94805.00;;;;7396901;19;20148;-79
2022/10/28 07:32:41;;;;;;;11.38;1.83;;;;;19.40;94813.00;;;;7399053;19;20164;-79
2022/10/28 07:35:08;;;;;;;14.10;2.88;;;;;19.20;94808.00;;;;7398171;19;20144;-78
2022/10/28 07:37:38;;;;;;;6.32;1.95;;;;;19.40;94811.00;;;;7396558;19;20172;-78
2022/10/28 07:40:12;;;;;;;5.57;1.90;;;;;19.40;94814.00;;;;7397372;19;20148;-78
2022/10/28 07:42:43;;;;;;;13.07;2.40;;;;;19.30;94817.00;;;;7398001;19;20604;-78
2022/10/28 07:45:10;;;;;;;9.10;2.25;;;;;19.20;94818.00;;;;7398287;19;20184;-78
2022/10/28 07:47:44;;;;;;;9.32;2.55;;;;;19.10;94823.00;;;;7395131;19;20152;-78
2022/10/28 07:50:15;;;;;;;10.57;2.28;;;;;18.80;94822.00;;;;7394939;19;20205;-79
2022/10/28 07:52:43;;;;;;;11.27;2.83;;;;;18.60;94818.00;;;;7393627;19;20145;-78
2022/10/28 07:55:31;;;;;;;12.43;2.55;;;;;18.50;94816.00;;;;7393522;19;20223;-78
2022/10/28 07:58:06;;;;;;;7.25;2.13;;;;;18.40;94820.00;;;;7390384;19;20164;-79
2022/10/28 08:00:40;;;;;;;10.65;2.47;;;;;18.20;94830.00;;;;7392178;19;20166;-79
2022/10/28 08:03:08;;;;;;;12.57;2.75;;;;;18.20;94825.00;;;;7391452;19;20733;-78
2022/10/28 08:05:35;;;;;;;12.68;2.40;;;;;18.10;94830.00;;;;7390293;19;20647;-78
2022/10/28 08:08:10;;;;;;;11.13;1.88;;;;;18.20;94827.00;;;;7392843;19;20155;-79
2022/10/28 08:10:39;;;;;;;9.30;2.42;;;;;18.20;94826.00;;;;7392691;19;20145;-79
2022/10/28 08:13:09;;;;;;;15.52;5.45;;;;;18.10;94830.00;;;;7393548;19;20157;-79
2022/10/28 08:15:49;;;;;;;11.02;2.63;;;;;18.10;94833.00;;;;7388422;19;20519;-78
2022/10/28 08:18:17;;;;;;;6.70;2.13;;;;;18.00;94828.00;;;;7390163;19;20820;-79
2022/10/28 08:20:51;;;;;;;8.73;2.42;;;;;18.00;94832.00;;;;7395098;19;20129;-79
2022/10/28 08:23:19;;;;;;;10.52;2.33;;;;;18.20;94826.00;;;;7392900;19;20160;-79
2022/10/28 08:25:51;;;;;;;8.55;2.65;;;;;18.10;94826.00;;;;7391805;19;20144;-79
2022/10/28 08:28:25;;;;;;;7.63;2.47;;;;;18.10;94826.00;;;;7390915;19;20133;-76
2022/10/28 08:30:59;;;;;;;8.82;2.83;;;;;18.30;94821.00;;;;7395410;19;20129;-78
2022/10/28 08:33:38;;;;;;;7.45;2.33;;;;;18.30;94828.00;;;;7396078;19;20172;-79
2022/10/28 08:36:06;;;;;;;11.60;2.95;;;;;18.40;94835.00;;;;7395345;19;20149;-79
2022/10/28 08:38:45;;;;;;;11.98;2.58;;;;;18.30;94844.00;;;;7392941;19;20141;-79
2022/10/28 08:41:37;;;;;;;12.25;2.88;;;;;18.30;94835.00;;;;7399157;19;20156;-79
2022/10/28 08:44:50;;;;;;;10.65;2.90;;;;;18.30;94829.00;;;;7398446;19;20152;-79
2022/10/28 08:47:45;;;;;;;12.93;2.50;;;;;18.00;94830.00;;;;7393497;19;20675;-79
2022/10/28 08:50:23;;;;;;;10.23;2.55;;;;;18.40;94824.00;;;;7397248;19;20626;-79
2022/10/28 08:53:28;;;;;;;9.90;2.67;;;;;18.60;94815.00;;;;7398388;19;20176;-78
2022/10/28 08:56:46;;;;;;;18.05;3.53;;;;;19.10;94802.00;;;;7393289;19;20153;-79
2022/10/28 08:59:21;;;;;;;8.75;2.20;;;;;19.00;94804.00;;;;7400814;19;20141;-79
2022/10/28 09:02:10;;;;;;;8.82;2.70;;;;;19.30;94820.00;;;;7399052;19;20140;-80
2022/10/28 09:04:43;;;;;;;9.55;2.45;;;;;19.50;94816.00;;;;7395556;19;20595;-78
2022/10/28 09:07:21;;;;;;;10.40;2.58;;;;;19.70;94805.00;;;;7397857;19;20129;-79
2022/10/28 09:09:54;;;;;;;11.25;2.80;;;;;19.90;94814.00;;;;7393588;19;20688;-78
2022/10/28 09:12:36;;;;;;;12.55;2.47;;;;;20.10;94816.00;;;;7395454;19;20137;-78
2022/10/28 09:15:36;;;;;;;10.70;3.17;;;;;20.20;94813.00;;;;7395877;19;20140;-78
2022/10/28 09:18:28;;;;;;;8.68;2.85;;;;;20.20;94817.00;;;;7391825;19;20149;-79
2022/10/28 09:20:59;;;;;;;6.07;2.67;;;;;20.30;94820.00;;;;7394413;19;20128;-79
2022/10/28 09:24:09;;;;;;;13.88;3.17;;;;;20.60;94819.00;;;;7390523;19;20619;-79
2022/10/28 09:26:56;;;;;;;12.98;2.30;;;;;20.60;94808.00;;;;7393479;19;20199;-79
2022/10/28 09:30:00;;;;;;;14.38;3.15;;;;;20.90;94808.00;;;;7392851;19;20156;-76
2022/10/28 09:32:38;;;;;;;13.57;2.65;;;;;21.40;94794.00;;;;7392107;19;20176;-76
2022/10/28 09:35:24;;;;;;;11.85;2.83;;;;;21.70;94797.00;;;;7393087;19;20128;-76
2022/10/28 09:37:58;;;;;;;14.27;2.90;;;;;21.80;94798.00;;;;7391503;19;20720;-75
2022/10/28 09:40:35;;;;;;;10.70;2.50;;;;;21.90;94813.00;;;;7391069;19;20156;-74
2022/10/28 09:43:24;;;;;;;13.18;2.80;;;;;21.70;94798.00;;;;7392332;19;20152;-76
2022/10/28 09:46:10;;;;;;;10.50;2.95;;;;;21.30;94805.00;;;;7391113;19;20157;-76
2022/10/28 09:48:53;;;;;;;12.25;2.90;;;;;21.40;94809.00;;;;7389951;19;20144;-76
2022/10/28 09:51:45;;;;;;;11.50;2.80;;;;;21.40;94802.00;;;;7383958;19;20522;-76
2022/10/28 09:54:13;;;;;;;9.02;2.70;;;;;21.80;94804.00;;;;7391923;19;20649;-75
2022/10/28 09:57:00;;;;;;;9.15;2.90;;;;;21.90;94801.00;;;;7392848;19;20505;-75
2022/10/28 09:59:47;;;;;;;12.80;2.90;;;;;22.00;94811.00;;;;7392016;19;20201;-76
2022/10/28 10:02:34;;;;;;;13.30;2.60;;;;;22.00;94812.00;;;;7394536;19;20236;-76
2022/10/28 10:05:02;;;;;;;13.75;2.97;;;;;22.00;94815.00;;;;7392264;19;20621;-76
2022/10/28 10:07:48;;;;;;;11.30;3.17;;;;;21.90;94817.00;;;;7394088;19;20133;-75
2022/10/28 10:10:26;;;;;;;12.57;2.53;;;;;22.20;94816.00;;;;7391613;19;20146;-75
2022/10/28 10:13:04;;;;;;;9.30;3.40;;;;;22.30;94816.00;;;;7392352;19;20155;-75
2022/10/28 10:15:45;;;;;;;13.88;2.85;;;;;22.20;94821.00;;;;7391618;19;20137;-75
2022/10/28 10:18:24;;;;;;;11.65;2.80;;;;;22.20;94819.00;;;;7391377;19;20124;-76
2022/10/28 10:21:00;;;;;;;9.32;2.53;;;;;22.70;94820.00;;;;7390809;19;20202;-76
2022/10/28 10:23:37;;;;;;;9.80;2.50;;;;;22.90;94814.00;;;;7391393;19;20157;-73
2022/10/28 10:26:12;;;;;;;13.48;2.72;;;;;23.00;94820.00;;;;7390919;19;20610;-75
2022/10/28 10:28:49;;;;;;;13.93;2.67;;;;;23.30;94813.00;;;;7389185;19;20240;-76
2022/10/28 10:31:26;;;;;;;10.52;2.85;;;;;23.90;94820.00;;;;7391373;19;20157;-76
2022/10/28 10:33:59;;;;;;;11.73;2.92;;;;;23.90;94819.00;;;;7393194;19;20133;-77
2022/10/28 10:36:30;;;;;;;15.95;2.85;;;;;23.90;94823.00;;;;7391327;19;20204;-75
2022/10/28 10:39:02;;;;;;;8.77;2.60;;;;;23.70;94814.00;;;;7393131;19;20176;-75
2022/10/28 10:41:42;;;;;;;8.40;2.72;;;;;23.50;94812.00;;;;7398932;19;20544;-77
2022/10/28 10:44:30;;;;;;;11.68;2.40;;;;;23.50;94821.00;;;;7398469;19;20679;-76
2022/10/28 10:47:04;;;;;;;11.50;2.72;;;;;23.20;94818.00;;;;7399405;19;20208;-76
2022/10/28 10:49:34;;;;;;;13.13;3.03;;;;;23.60;94821.00;;;;7399052;19;20137;-75
2022/10/28 10:52:15;;;;;;;10.88;2.92;;;;;23.30;94819.00;;;;7396087;19;20160;-75
2022/10/28 10:55:05;;;;;;;10.45;2.92;;;;;23.30;94818.00;;;;7399416;19;20627;-75
2022/10/28 10:57:40;;;;;;;13.88;2.72;;;;;23.30;94826.00;;;;7396463;19;20233;-74
2022/10/28 11:00:24;;;;;;;12.15;3.17;;;;;23.20;94828.00;;;;7395809;19;20156;-74
2022/10/28 11:02:55;;;;;;;9.13;2.20;;;;;23.00;94827.00;;;;7397619;19;20325;-77
2022/10/28 11:05:29;;;;;;;13.35;3.47;;;;;22.70;94818.00;;;;7401086;19;20464;-76
2022/10/28 11:08:06;;;;;;;10.55;2.50;;;;;22.50;94811.00;;;;7398061;19;20124;-77
2022/10/28 11:10:41;;;;;;;9.70;2.88;;;;;22.00;94813.00;;;;7395903;19;20548;-77
2022/10/28 11:13:25;;;;;;;8.02;2.63;;;;;21.80;94815.00;;;;7397942;19;20151;-75
2022/10/28 11:16:16;;;;;;;10.80;2.65;;;;;21.50;94820.00;;;;7397371;19;20157;-75
2022/10/28 11:18:46;;;;;;;10.95;2.80;;;;;21.50;94824.00;;;;7387200;19;20149;-75
2022/10/28 11:21:51;;;;;;;10.52;2.92;;;;;21.50;94825.00;;;;7396470;19;20239;-75
2022/10/28 11:24:24;;;;;;;12.13;2.78;;;;;21.60;94819.00;;;;7399098;19;20133;-77
2022/10/28 11:27:31;;;;;;;10.45;2.88;;;;;21.70;94809.00;;;;7397545;19;20133;-77
2022/10/28 11:30:00;;;;;;;10.95;3.40;;;;;21.70;94810.00;;;;7397385;19;20642;-77
2022/10/28 11:33:01;;;;;;;8.82;2.88;;;;;22.20;94799.00;;;;7397051;19;20174;-76
2022/10/28 11:36:07;;;;;;;10.02;2.92;;;;;23.80;94786.00;;;;7397460;19;20145;-76
2022/10/28 11:38:57;;;;;;;9.93;2.97;;;;;25.30;94776.00;;;;7394841;19;20149;-74
2022/10/28 11:41:31;;;;;;;16.02;2.95;;;;;26.50;94775.00;;;;7400001;19;20136;-75
2022/10/28 11:44:44;;;;;;;8.75;2.95;;;;;27.20;94781.00;;;;7395594;19;20168;-75
2022/10/28 11:47:30;;;;;;;19.73;3.20;;;;;28.00;94763.00;;;;7395411;19;20133;-73
2022/10/28 11:50:10;;;;;;;9.18;3.15;;;;;27.70;94786.00;;;;7394522;19;20139;-74
2022/10/28 11:52:47;;;;;;;13.68;3.28;;;;;27.00;94785.00;;;;7392738;19;20135;-75
2022/10/28 11:55:37;;;;;;;13.23;3.15;;;;;25.90;94784.00;;;;7396826;19;20152;-74
2022/10/28 11:58:39;;;;;;;11.20;2.80;;;;;26.00;94770.00;;;;7392000;19;20149;-74
2022/10/28 12:01:22;;;;;;;10.10;2.88;;;;;25.70;94769.00;;;;7392508;19;20145;-74
2022/10/28 12:04:16;;;;;;;13.27;3.35;;;;;25.60;94751.00;;;;7393889;19;20156;-73
2022/10/28 12:07:00;;;;;;;11.25;3.38;;;;;26.30;94752.00;;;;7393001;19;20265;-74
2022/10/28 12:09:51;;;;;;;11.88;2.95;;;;;27.30;94751.00;;;;7392219;19;20600;-74
2022/10/28 12:12:31;;;;;;;17.67;3.35;;;;;28.70;94755.00;;;;7393318;19;20137;-76
2022/10/28 12:15:18;;;;;;;18.58;3.60;;;;;29.10;94750.00;;;;7397134;19;20261;-76
2022/10/28 12:18:02;;;;;;;11.48;3.42;;;;;29.60;94748.00;;;;7393564;19;20615;-76
2022/10/28 12:20:45;;;;;;;11.55;3.10;;;;;29.60;94747.00;;;;7395460;19;20152;-77
2022/10/28 12:23:22;;;;;;;12.95;3.42;;;;;30.20;94743.00;;;;7388297;19;20634;-75
2022/10/28 12:25:56;;;;;;;13.05;3.20;;;;;29.80;94745.00;;;;7394054;19;20129;-75
2022/10/28 12:28:55;;;;;;;15.52;3.55;;;;;29.30;94749.00;;;;7394124;19;20199;-76
2022/10/28 12:31:31;;;;;;;16.13;3.38;;;;;29.70;94769.00;;;;7394398;19;20158;-76
2022/10/28 12:34:11;;;;;;;15.95;3.58;;;;;27.90;94772.00;;;;7394989;19;20136;-76
2022/10/28 12:37:09;;;;;;;16.10;3.47;;;;;27.90;94757.00;;;;7394389;19;20140;-77
2022/10/28 12:40:17;;;;;;;19.27;3.50;;;;;28.80;94759.00;;;;7394962;19;20151;-76
2022/10/28 12:42:58;;;;;;;15.82;3.30;;;;;29.40;94746.00;;;;7395431;19;20160;-74
2022/10/28 12:45:33;;;;;;;12.70;3.22;;;;;29.30;94754.00;;;;7395860;19;20144;-74
2022/10/28 12:48:54;;;;;;;10.23;3.92;;;;;28.80;94755.00;;;;7395665;19;20627;-75
2022/10/28 12:51:35;;;;;;;14.07;3.63;;;;;28.70;94761.00;;;;7395125;19;20131;-76
2022/10/28 12:54:29;;;;;;;18.42;3.10;;;;;29.00;94761.00;;;;7394144;19;20144;-75
2022/10/28 12:57:23;;;;;;;12.70;3.83;;;;;29.10;94764.00;;;;7397404;19;20152;-74
2022/10/28 13:00:30;;;;;;;13.57;3.60;;;;;28.90;94753.00;;;;7393249;19;20122;-75
2022/10/28 13:03:10;;;;;;;14.10;3.75;;;;;29.30;94754.00;;;;7397845;19;20124;-75